createdAt,value
2022-10-20T00:01:46.529Z,13.80
2022-10-20T00:04:14.960Z,13.71
2022-10-20T00:06:42.105Z,13.74
2022-10-20T00:09:09.293Z,13.67
2022-10-20T00:11:36.602Z,13.64
2022-10-20T00:14:05.191Z,13.64
2022-10-20T00:16:37.273Z,13.65
2022-10-20T00:19:05.209Z,13.67
2022-10-20T00:21:32.928Z,13.68
2022-10-20T00:24:01.515Z,13.70
2022-10-20T00:26:30.927Z,13.67
2022-10-20T00:28:58.833Z,13.63
2022-10-20T00:31:26.661Z,13.61
2022-10-20T00:33:54.441Z,13.55
2022-10-20T00:36:23.768Z,13.47
2022-10-20T00:38:52.244Z,13.43
2022-10-20T00:41:21.540Z,13.38
2022-10-20T00:44:00.120Z,13.40
2022-10-20T00:46:42.521Z,13.44
2022-10-20T00:49:25.932Z,13.46
2022-10-20T00:51:54.807Z,13.46
2022-10-20T00:54:27.157Z,13.45
2022-10-20T00:56:57.125Z,13.50
2022-10-20T00:59:32.085Z,13.48
2022-10-20T01:02:01.682Z,13.45
2022-10-20T01:04:31.566Z,13.38
2022-10-20T01:06:59.572Z,13.44
2022-10-20T01:09:27.311Z,13.45
2022-10-20T01:12:19.243Z,13.49
2022-10-20T01:15:10.737Z,13.41
2022-10-20T01:17:49.017Z,13.44
2022-10-20T01:21:04.995Z,13.44
2022-10-20T01:23:52.972Z,13.39
2022-10-20T01:26:57.653Z,13.33
2022-10-20T01:30:07.181Z,13.25
2022-10-20T01:33:09.900Z,13.19
2022-10-20T01:36:06.588Z,13.13
2022-10-20T01:39:15.288Z,13.13
2022-10-20T01:42:12.513Z,13.09
2022-10-20T01:44:41.361Z,13.04
2022-10-20T01:47:11.686Z,12.99
2022-10-20T01:49:44.660Z,12.97
2022-10-20T01:52:12.724Z,12.89
2022-10-20T01:54:40.425Z,12.85
2022-10-20T01:57:45.951Z,12.90
2022-10-20T02:00:16.815Z,12.85
2022-10-20T02:03:40.853Z,12.85
2022-10-20T02:06:35.381Z,12.80
2022-10-20T02:09:16.084Z,12.77
2022-10-20T02:12:07.860Z,12.77
2022-10-20T02:14:37.716Z,12.75
2022-10-20T02:17:11.445Z,12.75
2022-10-20T02:19:43.749Z,12.74
2022-10-20T02:22:15.144Z,12.80
2022-10-20T02:24:44.662Z,12.76
2022-10-20T02:27:28.157Z,12.77
2022-10-20T02:30:10.464Z,12.78
2022-10-20T02:32:41.136Z,12.77
2022-10-20T02:35:14.575Z,12.78
2022-10-20T02:37:41.961Z,12.72
2022-10-20T02:40:10.036Z,12.68
2022-10-20T02:42:38.600Z,12.69
2022-10-20T02:45:07.517Z,12.66
2022-10-20T02:47:35.215Z,12.67
2022-10-20T02:50:02.886Z,12.67
2022-10-20T02:52:30.380Z,12.63
2022-10-20T02:54:57.630Z,12.59
2022-10-20T02:57:24.745Z,12.59
2022-10-20T02:59:51.960Z,12.56
2022-10-20T03:02:19.378Z,12.46
2022-10-20T03:04:46.505Z,12.45
2022-10-20T03:07:14.510Z,12.40
2022-10-20T03:09:41.849Z,12.41
2022-10-20T03:12:09.129Z,12.44
2022-10-20T03:14:36.244Z,12.45
2022-10-20T03:17:03.508Z,12.52
2022-10-20T03:19:30.801Z,12.54
2022-10-20T03:21:57.981Z,12.56
2022-10-20T03:24:25.285Z,12.57
2022-10-20T03:26:52.483Z,12.56
2022-10-20T03:29:19.712Z,12.50
2022-10-20T03:31:46.971Z,12.45
2022-10-20T03:34:14.333Z,12.41
2022-10-20T03:36:41.572Z,12.43
2022-10-20T03:39:08.777Z,12.48
2022-10-20T03:41:35.995Z,12.44
2022-10-20T03:44:03.165Z,12.40
2022-10-20T03:46:30.312Z,12.40
2022-10-20T03:48:57.478Z,12.35
2022-10-20T03:51:24.770Z,12.36
2022-10-20T03:53:51.944Z,12.38
2022-10-20T03:56:21.168Z,12.39
2022-10-20T03:58:48.745Z,12.30
2022-10-20T04:01:22.312Z,12.27
2022-10-20T04:03:49.483Z,12.20
2022-10-20T04:06:16.868Z,12.24
2022-10-20T04:08:44.194Z,12.29
2022-10-20T04:11:11.970Z,12.33
2022-10-20T04:13:39.205Z,12.34
2022-10-20T04:16:07.310Z,12.35
2022-10-20T04:18:34.589Z,12.38
2022-10-20T04:21:01.764Z,12.32
2022-10-20T04:23:28.865Z,12.31
2022-10-20T04:25:56.057Z,12.30
2022-10-20T04:28:23.340Z,12.27
2022-10-20T04:30:50.563Z,12.29
2022-10-20T04:33:17.788Z,12.30
2022-10-20T04:35:45.079Z,12.31
2022-10-20T04:38:12.305Z,12.22
2022-10-20T04:40:39.532Z,12.22
2022-10-20T04:43:06.671Z,12.20
2022-10-20T04:45:33.949Z,12.14
2022-10-20T04:48:02.239Z,12.13
2022-10-20T04:50:29.404Z,12.19
2022-10-20T04:53:08.395Z,12.36
2022-10-20T04:55:36.223Z,12.54
2022-10-20T04:58:03.883Z,12.70
2022-10-20T05:00:31.015Z,12.87
2022-10-20T05:02:58.328Z,12.94
2022-10-20T05:05:25.541Z,13.04
2022-10-20T05:07:52.687Z,13.07
2022-10-20T05:10:20.722Z,13.13
2022-10-20T05:12:47.891Z,13.15
2022-10-20T05:15:15.506Z,13.11
2022-10-20T05:17:43.019Z,13.05
2022-10-20T05:20:10.640Z,12.96
2022-10-20T05:22:38.170Z,12.89
2022-10-20T05:25:31.382Z,12.82
2022-10-20T05:27:53.371Z,12.77
2022-10-20T05:30:20.581Z,12.79
2022-10-20T05:32:47.865Z,12.77
2022-10-20T05:35:15.237Z,12.75
2022-10-20T05:37:42.617Z,12.78
2022-10-20T05:40:10.857Z,12.72
2022-10-20T05:42:38.493Z,12.73
2022-10-20T05:45:08.130Z,12.73
2022-10-20T05:47:35.396Z,12.77
2022-10-20T05:50:02.773Z,12.86
2022-10-20T05:52:30.049Z,13.00
2022-10-20T05:54:57.392Z,13.15
2022-10-20T05:57:24.556Z,13.30
2022-10-20T05:59:51.708Z,13.40
2022-10-20T06:02:18.899Z,13.51
2022-10-20T06:04:46.057Z,13.59
2022-10-20T06:07:13.230Z,13.64
2022-10-20T06:09:41.116Z,13.63
2022-10-20T06:14:40.513Z,13.78
2022-10-20T06:17:07.809Z,13.88
2022-10-20T06:19:34.945Z,13.96
2022-10-20T06:22:05.496Z,14.01
2022-10-20T06:24:34.778Z,14.07
2022-10-20T06:27:01.965Z,14.13
2022-10-20T06:29:29.088Z,14.17
2022-10-20T06:31:56.825Z,14.23
2022-10-20T06:34:25.926Z,14.31
2022-10-20T06:36:53.434Z,14.40
2022-10-20T06:39:24.050Z,14.46
2022-10-20T06:41:54.494Z,14.39
2022-10-20T06:44:24.588Z,14.48
2022-10-20T06:46:55.082Z,14.61
2022-10-20T06:49:22.672Z,14.72
2022-10-20T06:51:50.407Z,14.77
2022-10-20T06:54:18.034Z,14.80
2022-10-20T06:56:45.260Z,14.76
2022-10-20T06:59:12.352Z,14.79
2022-10-20T07:01:40.399Z,14.85
2022-10-20T07:04:15.268Z,14.95
2022-10-20T07:06:45.848Z,15.08
2022-10-20T07:09:18.743Z,15.20
2022-10-20T07:11:46.612Z,15.28
2022-10-20T07:14:14.239Z,15.27
2022-10-20T07:16:41.698Z,15.21
2022-10-20T07:19:09.178Z,15.19
2022-10-20T07:21:38.328Z,15.22
2022-10-20T07:24:09.497Z,15.23
2022-10-20T07:26:40.310Z,15.29
2022-10-20T07:29:08.075Z,15.40
2022-10-20T07:31:46.962Z,15.46
2022-10-20T07:34:25.863Z,15.64
2022-10-20T07:36:56.187Z,15.77
2022-10-20T07:39:24.309Z,16.00
2022-10-20T07:41:51.915Z,16.05
2022-10-20T07:44:19.320Z,16.15
2022-10-20T07:46:46.616Z,16.23
2022-10-20T07:52:01.188Z,16.33
2022-10-20T07:54:28.293Z,16.43
2022-10-20T07:56:55.672Z,16.53
2022-10-20T07:59:22.895Z,16.69
2022-10-20T08:01:51.221Z,16.79
2022-10-20T08:04:19.681Z,16.89
2022-10-20T08:06:47.234Z,17.04
2022-10-20T08:09:14.353Z,17.24
2022-10-20T08:11:41.581Z,17.31
2022-10-20T08:14:08.805Z,17.36
2022-10-20T08:16:43.070Z,17.41
2022-10-20T08:21:54.234Z,17.80
2022-10-20T08:24:22.084Z,17.87
2022-10-20T08:26:49.224Z,17.72
2022-10-20T08:29:16.383Z,17.70
2022-10-20T08:31:44.877Z,17.79
2022-10-20T08:34:12.085Z,17.64
2022-10-20T08:36:39.347Z,17.76
2022-10-20T08:39:06.693Z,17.79
2022-10-20T08:44:35.064Z,17.84
2022-10-20T08:47:06.117Z,17.88
2022-10-20T08:49:35.129Z,17.95
2022-10-20T08:52:02.783Z,18.06
2022-10-20T08:54:34.007Z,18.14
2022-10-20T08:57:01.281Z,18.16
2022-10-20T08:59:36.546Z,18.17
2022-10-20T09:02:17.001Z,18.35
2022-10-20T09:04:59.590Z,18.49
2022-10-20T09:07:36.325Z,18.52
2022-10-20T09:10:18.589Z,18.62
2022-10-20T09:12:48.868Z,18.67
2022-10-20T09:15:18.594Z,18.56
2022-10-20T09:18:02.873Z,18.63
2022-10-20T09:20:53.603Z,18.75
2022-10-20T09:23:41.130Z,18.73
2022-10-20T09:26:30.634Z,18.80
2022-10-20T09:29:15.278Z,18.91
2022-10-20T09:31:53.822Z,18.96
2022-10-20T09:34:23.118Z,19.08
2022-10-20T09:37:18.674Z,19.23
2022-10-20T09:39:59.243Z,19.11
2022-10-20T09:42:35.735Z,19.27
2022-10-20T09:45:26.804Z,19.35
2022-10-20T09:48:31.073Z,19.68
2022-10-20T09:51:00.264Z,19.68
2022-10-20T09:53:47.372Z,19.63
2022-10-20T09:56:36.141Z,19.75
2022-10-20T09:59:18.112Z,19.77
2022-10-20T10:02:02.961Z,19.71
2022-10-20T10:04:38.481Z,19.70
2022-10-20T10:07:26.831Z,19.66
2022-10-20T10:10:05.417Z,19.68
2022-10-20T10:12:36.323Z,19.71
2022-10-20T10:15:36.864Z,19.85
2022-10-20T10:18:21.829Z,19.99
2022-10-20T10:21:10.385Z,19.94
2022-10-20T10:23:57.813Z,20.31
2022-10-20T10:26:54.292Z,20.53
2022-10-20T10:29:30.077Z,20.76
2022-10-20T10:32:23.975Z,20.83
2022-10-20T10:35:29.211Z,20.86
2022-10-20T10:37:58.321Z,20.95
2022-10-20T10:41:29.768Z,21.20
2022-10-20T10:44:14.280Z,20.49
2022-10-20T10:47:33.318Z,20.61
2022-10-20T10:50:48.395Z,20.41
2022-10-20T10:53:36.819Z,20.32
2022-10-20T10:56:43.302Z,20.30
2022-10-20T10:59:40.719Z,20.26
2022-10-20T11:02:52.654Z,20.49
2022-10-20T11:05:56.570Z,20.81
2022-10-20T11:09:10.157Z,20.92
2022-10-20T11:12:29.122Z,21.15
2022-10-20T11:15:40.759Z,21.40
2022-10-20T11:18:44.942Z,21.48
2022-10-20T11:21:50.839Z,21.47
2022-10-20T11:25:09.811Z,21.65
2022-10-20T11:27:38.978Z,22.08
2022-10-20T11:30:21.351Z,22.35
2022-10-20T11:33:13.170Z,22.20
2022-10-20T11:36:09.351Z,22.15
2022-10-20T11:38:47.202Z,22.36
2022-10-20T11:41:47.457Z,22.21
2022-10-20T11:44:40.790Z,21.94
2022-10-20T11:47:27.814Z,21.73
2022-10-20T11:49:55.039Z,21.70
2022-10-20T11:52:58.979Z,21.74
2022-10-20T11:56:27.264Z,21.89
2022-10-20T11:59:15.861Z,21.85
2022-10-20T12:02:29.453Z,21.58
2022-10-20T12:05:23.017Z,21.64
2022-10-20T12:08:49.475Z,21.36
2022-10-20T12:12:08.848Z,21.37
2022-10-20T12:14:51.038Z,21.34
2022-10-20T12:17:36.292Z,21.53
2022-10-20T12:20:21.834Z,21.55
2022-10-20T12:22:54.967Z,21.57
2022-10-20T12:25:25.417Z,21.44
2022-10-20T12:28:20.417Z,21.56
2022-10-20T12:31:03.179Z,21.56
2022-10-20T12:33:48.967Z,21.28
2022-10-20T12:36:18.680Z,21.20
2022-10-20T12:38:55.078Z,21.01
2022-10-20T12:41:35.255Z,21.15
2022-10-20T12:44:18.750Z,21.24
2022-10-20T12:47:08.168Z,21.45
2022-10-20T12:49:53.048Z,21.49
2022-10-20T12:52:28.645Z,21.44
2022-10-20T12:55:09.076Z,21.45
2022-10-20T12:57:44.964Z,21.50
2022-10-20T13:00:23.992Z,21.57
2022-10-20T13:02:59.941Z,21.45
2022-10-20T13:05:46.718Z,21.30
2022-10-20T13:08:19.941Z,21.14
2022-10-20T13:10:49.224Z,21.02
2022-10-20T13:13:19.442Z,20.93
2022-10-20T13:15:52.538Z,20.89
2022-10-20T13:18:29.041Z,20.98
2022-10-20T13:21:31.844Z,20.80
2022-10-20T13:29:38.128Z,20.49
2022-10-20T13:32:25.335Z,20.60
2022-10-20T13:35:27.864Z,20.88
2022-10-20T13:38:35.938Z,21.05
2022-10-20T13:41:31.069Z,21.19
2022-10-20T13:44:38.750Z,21.22
2022-10-20T13:47:42.349Z,21.17
2022-10-20T13:50:30.090Z,20.76
2022-10-20T13:53:20.655Z,20.93
2022-10-20T13:56:38.265Z,21.05
2022-10-20T13:59:14.627Z,21.01
2022-10-20T14:01:51.496Z,21.05
2022-10-20T14:04:37.232Z,21.00
2022-10-20T14:07:13.054Z,20.91
2022-10-20T14:09:45.446Z,20.82
2022-10-20T14:12:25.339Z,20.70
2022-10-20T14:15:00.729Z,20.60
2022-10-20T14:17:29.248Z,20.44
2022-10-20T14:20:21.110Z,20.36
2022-10-20T14:22:49.578Z,20.28
2022-10-20T14:25:17.624Z,20.24
2022-10-20T14:27:45.214Z,20.23
2022-10-20T14:30:17.767Z,20.19
2022-10-20T14:32:48.373Z,20.17
2022-10-20T14:35:28.821Z,20.13
2022-10-20T14:38:24.969Z,20.10
2022-10-20T14:40:57.072Z,20.14
2022-10-20T14:43:43.908Z,20.25
2022-10-20T14:46:25.846Z,20.29
2022-10-20T14:48:53.012Z,20.31
2022-10-20T14:51:54.935Z,20.29
2022-10-20T14:54:31.365Z,20.25
2022-10-20T14:57:09.954Z,20.22
2022-10-20T15:00:22.673Z,20.18
2022-10-20T15:02:56.342Z,20.12
2022-10-20T15:05:26.476Z,20.05
2022-10-20T15:07:54.542Z,20.04
2022-10-20T15:10:26.111Z,20.04
2022-10-20T15:12:55.734Z,19.99
2022-10-20T15:15:35.408Z,19.92
2022-10-20T15:18:19.685Z,19.87
2022-10-20T15:20:48.945Z,19.86
2022-10-20T15:23:24.377Z,19.79
2022-10-20T15:26:06.477Z,19.78
2022-10-20T15:28:40.602Z,19.75
2022-10-20T15:31:29.976Z,19.68
2022-10-20T15:33:58.701Z,19.59
2022-10-20T15:36:33.729Z,19.48
2022-10-20T15:39:01.174Z,19.41
2022-10-20T15:41:36.344Z,19.31
2022-10-20T15:44:23.868Z,19.30
2022-10-20T15:46:56.281Z,19.30
2022-10-20T15:49:23.893Z,19.33
2022-10-20T15:51:51.351Z,19.30
2022-10-20T15:54:21.929Z,19.25
2022-10-20T15:56:49.445Z,19.16
2022-10-20T15:59:16.576Z,19.09
2022-10-20T16:01:43.809Z,19.03
2022-10-20T16:04:19.632Z,19.00
2022-10-20T16:06:47.185Z,18.95
2022-10-20T16:09:16.046Z,18.81
2022-10-20T16:11:44.638Z,18.72
2022-10-20T16:14:13.451Z,18.67
2022-10-20T16:16:41.474Z,18.64
2022-10-20T16:19:08.940Z,18.61
2022-10-20T16:21:36.433Z,18.59
2022-10-20T16:24:04.970Z,18.56
2022-10-20T16:26:33.951Z,18.58
2022-10-20T16:29:01.209Z,18.53
2022-10-20T16:31:29.327Z,18.46
2022-10-20T16:34:00.144Z,18.38
2022-10-20T16:36:27.463Z,18.33
2022-10-20T16:38:57.355Z,18.24
2022-10-20T16:41:24.680Z,18.15
2022-10-20T16:43:52.094Z,18.11
2022-10-20T16:46:19.358Z,18.05
2022-10-20T16:48:48.198Z,17.90
2022-10-20T16:51:17.549Z,17.87
2022-10-20T16:53:45.189Z,17.81
2022-10-20T16:56:15.420Z,17.73
2022-10-20T16:58:45.827Z,17.63
2022-10-20T17:01:16.243Z,17.56
2022-10-20T17:03:48.355Z,17.55
2022-10-20T17:06:22.488Z,17.52
2022-10-20T17:08:50.851Z,17.48
2022-10-20T17:11:32.174Z,17.39
2022-10-20T17:14:00.021Z,17.34
2022-10-20T17:16:34.434Z,17.29
2022-10-20T17:19:02.908Z,17.29
2022-10-20T17:21:32.392Z,17.27
2022-10-20T17:24:00.258Z,17.27
2022-10-20T17:26:30.830Z,17.29
2022-10-20T17:29:01.291Z,17.32
2022-10-20T17:31:30.318Z,17.30
2022-10-20T17:33:59.372Z,17.25
2022-10-20T17:36:28.467Z,17.25
2022-10-20T17:39:06.298Z,17.25
2022-10-20T17:41:33.663Z,17.24
2022-10-20T17:44:04.545Z,17.21
2022-10-20T17:46:33.333Z,17.16
2022-10-20T17:49:03.578Z,17.13
2022-10-20T17:51:34.406Z,17.08
2022-10-20T17:54:03.525Z,17.08
2022-10-20T17:56:36.159Z,17.04
2022-10-20T17:59:07.363Z,17.03
2022-10-20T18:01:44.014Z,17.04
2022-10-20T18:04:16.558Z,17.02
2022-10-20T18:06:45.387Z,17.00
2022-10-20T18:09:17.153Z,16.96
2022-10-20T18:11:50.045Z,16.89
2022-10-20T18:14:17.753Z,16.92
2022-10-20T18:16:46.136Z,16.93
2022-10-20T18:19:18.291Z,16.87
2022-10-20T18:21:47.509Z,16.88
2022-10-20T18:24:17.612Z,16.87
2022-10-20T18:26:45.454Z,16.89
2022-10-20T18:29:14.955Z,16.82
2022-10-20T18:31:45.931Z,16.80
2022-10-20T18:34:20.361Z,16.79
2022-10-20T18:36:49.538Z,16.77
2022-10-20T18:39:17.714Z,16.77
2022-10-20T18:41:45.482Z,16.76
2022-10-20T18:44:17.713Z,16.69
2022-10-20T18:46:47.170Z,16.66
2022-10-20T18:49:21.445Z,16.62
2022-10-20T18:51:48.705Z,16.61
2022-10-20T18:54:18.411Z,16.61
2022-10-20T18:56:45.726Z,16.57
2022-10-20T18:59:16.264Z,16.54
2022-10-20T19:01:43.788Z,16.51
2022-10-20T19:04:12.656Z,16.51
2022-10-20T19:06:47.161Z,16.49
2022-10-20T19:09:21.088Z,16.52
2022-10-20T19:14:22.169Z,16.51
2022-10-20T19:16:50.092Z,16.44
2022-10-20T19:19:17.422Z,16.34
2022-10-20T19:21:45.096Z,16.27
2022-10-20T19:24:19.411Z,16.20
2022-10-20T19:26:57.559Z,16.18
2022-10-20T19:29:35.736Z,16.12
2022-10-20T19:32:05.760Z,16.09
2022-10-20T19:34:40.229Z,16.10
2022-10-20T19:37:08.098Z,16.09
2022-10-20T19:39:41.022Z,16.11
2022-10-20T19:42:10.214Z,16.08
2022-10-20T19:44:39.027Z,16.05
2022-10-20T19:47:07.971Z,16.03
2022-10-20T19:49:35.472Z,16.01
2022-10-20T19:52:04.539Z,16.02
2022-10-20T19:54:31.670Z,16.05
2022-10-20T19:56:59.353Z,16.05
2022-10-20T19:59:26.652Z,16.02
2022-10-20T20:01:53.942Z,16.02
2022-10-20T20:04:21.213Z,16.00
2022-10-20T20:06:48.879Z,15.97
2022-10-20T20:09:16.384Z,15.95
2022-10-20T20:11:44.352Z,15.94
2022-10-20T20:14:19.216Z,15.96
2022-10-20T20:16:47.523Z,16.00
2022-10-20T20:19:17.182Z,16.01
2022-10-20T20:21:45.841Z,16.00
2022-10-20T20:24:14.281Z,16.01
2022-10-20T20:26:44.524Z,16.02
2022-10-20T20:29:12.130Z,16.00
2022-10-20T20:31:39.384Z,15.97
2022-10-20T20:34:06.678Z,15.92
2022-10-20T20:36:34.243Z,15.87
2022-10-20T20:39:02.074Z,15.84
2022-10-20T20:41:31.092Z,15.85
2022-10-20T20:44:01.026Z,15.89
2022-10-20T20:46:31.019Z,15.92
2022-10-20T20:48:58.576Z,15.90
2022-10-20T20:51:26.966Z,15.92
2022-10-20T20:53:55.023Z,15.89
2022-10-20T20:56:24.622Z,15.87
2022-10-20T20:58:55.309Z,15.87
2022-10-20T21:01:29.148Z,15.89
2022-10-20T21:04:00.657Z,15.87
2022-10-20T21:06:34.000Z,15.86
2022-10-20T21:09:09.248Z,15.84
2022-10-20T21:11:37.053Z,15.84
2022-10-20T21:14:04.921Z,15.85
2022-10-20T21:16:36.655Z,15.80
2022-10-20T21:19:10.036Z,15.77
2022-10-20T21:21:50.384Z,15.77
2022-10-20T21:24:18.453Z,15.72
2022-10-20T21:26:45.818Z,15.69
2022-10-20T21:29:12.974Z,15.68
2022-10-20T21:31:41.039Z,15.65
2022-10-20T21:34:08.623Z,15.61
2022-10-20T21:36:39.952Z,15.64
2022-10-20T21:39:13.012Z,15.64
2022-10-20T21:41:40.460Z,15.64
2022-10-20T21:44:09.593Z,15.65
2022-10-20T21:46:47.139Z,15.67
2022-10-20T21:49:20.235Z,15.70
2022-10-20T21:51:57.394Z,15.69
2022-10-20T21:54:28.413Z,15.71
2022-10-20T21:56:56.663Z,15.69
2022-10-20T21:59:30.343Z,15.68
2022-10-20T22:02:01.297Z,15.68
2022-10-20T22:04:30.461Z,15.68
2022-10-20T22:06:59.299Z,15.69
2022-10-20T22:09:26.840Z,15.65
2022-10-20T22:11:56.546Z,15.69
2022-10-20T22:14:24.145Z,15.69
2022-10-20T22:16:51.962Z,15.69
2022-10-20T22:19:23.570Z,15.71
2022-10-20T22:21:52.702Z,15.71
2022-10-20T22:24:21.818Z,15.75
2022-10-20T22:26:52.012Z,15.72
2022-10-20T22:29:22.681Z,15.71
2022-10-20T22:31:50.122Z,15.71
2022-10-20T22:34:17.449Z,15.71
2022-10-20T22:36:44.786Z,15.70
2022-10-20T22:41:45.681Z,15.67
2022-10-20T22:44:13.005Z,15.63
2022-10-20T22:46:40.144Z,15.60
2022-10-20T22:49:07.340Z,15.58
2022-10-20T22:51:34.518Z,15.62
2022-10-20T22:54:01.783Z,15.63
2022-10-20T22:56:29.057Z,15.64
2022-10-20T22:58:56.189Z,15.61
2022-10-20T23:01:24.201Z,15.55
2022-10-20T23:03:51.972Z,15.55
2022-10-20T23:06:25.024Z,15.56
2022-10-20T23:08:56.308Z,15.50
2022-10-20T23:11:23.810Z,15.43
2022-10-20T23:13:51.443Z,15.38
2022-10-20T23:16:19.558Z,15.37
2022-10-20T23:18:47.688Z,15.36
2022-10-20T23:21:15.256Z,15.34
2022-10-20T23:23:44.760Z,15.28
2022-10-20T23:26:13.445Z,15.21
2022-10-20T23:28:40.741Z,15.19
2022-10-20T23:31:19.920Z,15.18
2022-10-20T23:33:50.204Z,15.17
2022-10-20T23:36:17.669Z,15.19
2022-10-20T23:38:46.165Z,15.20
2022-10-20T23:41:14.629Z,15.17
2022-10-20T23:43:41.913Z,15.16
2022-10-20T23:46:12.042Z,15.16
2022-10-20T23:48:39.898Z,15.11
2022-10-20T23:51:08.041Z,15.07
2022-10-20T23:53:35.780Z,15.12
2022-10-20T23:56:03.459Z,15.15
2022-10-20T23:58:30.613Z,15.17
